Time;durP1;ratioP1;P1;durP2;ratioP2;P2;SDS_P1;SDS_P2;PMS_P1;PMS_P2;Temp;Humidity;BMP_temperature;BMP_pressure;BME280_temperature;BME280_humidity;BME280_pressure;Samples;Min_cycle;Max_cycle;Signal;HPM_P1;HPM_P2
2023/07/15 00:01:18;;;;;;;8.77;3.77;;;22.70;1.00;;;;;;4987982;28;20229;-75
2023/07/15 00:03:44;;;;;;;7.47;3.93;;;22.70;1.00;;;;;;4994342;28;20441;-75
2023/07/15 00:06:10;;;;;;;7.60;4.50;;;22.60;1.00;;;;;;4987518;28;20455;-75
2023/07/15 00:08:36;;;;;;;7.53;4.03;;;22.50;1.00;;;;;;4992371;28;20552;-75
2023/07/15 00:11:02;;;;;;;5.47;4.20;;;24.20;1.00;;;;;;4985728;28;20675;-75
2023/07/15 00:13:27;;;;;;;10.83;4.10;;;22.40;1.00;;;;;;4988989;28;20426;-75
2023/07/15 00:15:53;;;;;;;8.20;4.17;;;22.40;1.00;;;;;;4987007;28;20777;-77
2023/07/15 00:18:22;;;;;;;10.07;4.40;;;22.40;1.00;;;;;;4991218;28;20186;-75
2023/07/15 00:20:48;;;;;;;6.20;4.30;;;22.40;1.00;;;;;;4997352;28;20183;-75
2023/07/15 00:23:21;;;;;;;10.00;3.87;;;22.30;1.00;;;;;;4988067;28;20520;-74
2023/07/15 00:25:50;;;;;;;10.20;4.10;;;22.30;1.00;;;;;;4988412;28;20971;-75
2023/07/15 00:28:16;;;;;;;5.97;3.90;;;22.40;1.00;;;;;;4992385;28;21004;-74
2023/07/15 00:30:42;;;;;;;9.27;3.97;;;22.30;1.00;;;;;;4993623;28;20442;-76
2023/07/15 00:33:13;;;;;;;10.50;3.90;;;22.40;1.00;;;;;;4995043;28;20451;-75
2023/07/15 00:35:38;;;;;;;6.20;3.90;;;22.30;1.00;;;;;;4987306;28;20261;-74
2023/07/15 00:38:04;;;;;;;7.80;4.13;;;22.30;1.00;;;;;;4987940;28;20528;-75
2023/07/15 00:40:37;;;;;;;7.10;3.97;;;22.30;1.00;;;;;;4989240;28;20201;-75
2023/07/15 00:43:40;;;;;;;7.40;4.13;;;22.20;1.00;;;;;;4988768;28;20237;-75
2023/07/15 00:46:17;;;;;;;7.20;3.90;;;22.20;1.00;;;;;;4990310;28;20492;-75
2023/07/15 00:48:56;;;;;;;7.37;4.07;;;22.10;1.00;;;;;;4995529;28;20468;-75
2023/07/15 00:51:24;;;;;;;7.47;4.00;;;22.10;1.00;;;;;;4992239;28;20429;-75
2023/07/15 00:53:50;;;;;;;6.17;4.63;;;22.10;1.00;;;;;;4988966;28;20720;-75
2023/07/15 00:56:17;;;;;;;8.30;4.40;;;22.10;1.00;;;;;;4990469;28;20438;-75
2023/07/15 00:58:42;;;;;;;7.47;4.13;;;22.10;1.00;;;;;;4991523;28;20459;-75
2023/07/15 01:01:10;;;;;;;7.20;4.60;;;22.00;1.00;;;;;;4990742;28;20438;-75
2023/07/15 01:03:37;;;;;;;10.83;3.97;;;22.00;1.00;;;;;;4994108;28;20648;-74
2023/07/15 01:06:03;;;;;;;10.67;4.30;;;22.00;1.00;;;;;;4997024;28;20437;-74
2023/07/15 01:08:28;;;;;;;7.47;3.97;;;21.80;1.00;;;;;;4990631;28;20520;-75
2023/07/15 01:10:55;;;;;;;6.50;4.67;;;21.80;1.00;;;;;;4990939;28;20187;-75
2023/07/15 01:13:20;;;;;;;8.43;5.20;;;21.80;1.00;;;;;;4991604;28;20262;-75
2023/07/15 01:15:47;;;;;;;6.03;4.20;;;21.70;1.00;;;;;;4991138;28;20691;-75
2023/07/15 01:18:12;;;;;;;6.13;4.20;;;21.60;1.00;;;;;;4991728;28;20645;-75
2023/07/15 01:20:38;;;;;;;6.70;4.83;;;21.60;1.00;;;;;;4994518;28;20549;-75
2023/07/15 01:23:04;;;;;;;4.87;3.90;;;21.60;1.00;;;;;;4992834;28;20193;-75
2023/07/15 01:25:29;;;;;;;8.47;3.83;;;21.60;1.00;;;;;;4989945;28;20268;-76
2023/07/15 01:27:54;;;;;;;17.23;5.10;;;21.50;1.00;;;;;;4990187;28;20210;-75
2023/07/15 01:30:20;;;;;;;12.83;4.93;;;21.40;1.00;;;;;;4990183;28;20211;-75
2023/07/15 01:32:45;;;;;;;8.37;4.07;;;21.40;1.00;;;;;;4991480;28;20174;-73
2023/07/15 01:35:11;;;;;;;7.93;4.70;;;21.30;1.00;;;;;;4992590;28;20217;-74
2023/07/15 01:37:36;;;;;;;10.77;4.50;;;21.30;1.00;;;;;;4990478;28;20204;-78
2023/07/15 01:40:06;;;;;;;11.80;4.87;;;21.20;1.00;;;;;;4999205;28;20248;-75
2023/07/15 01:42:32;;;;;;;8.73;4.03;;;21.20;1.00;;;;;;4998871;28;20171;-75
2023/07/15 01:44:57;;;;;;;9.03;4.57;;;21.20;1.00;;;;;;4991099;28;20457;-75
2023/07/15 01:47:22;;;;;;;11.00;4.80;;;21.20;1.00;;;;;;4991193;28;20191;-75
2023/07/15 01:49:48;;;;;;;11.20;4.70;;;21.20;1.00;;;;;;4990197;28;20289;-75
2023/07/15 01:52:14;;;;;;;12.80;5.10;;;21.10;1.00;;;;;;4988874;28;20183;-76
2023/07/15 01:54:40;;;;;;;10.10;4.30;;;21.20;1.00;;;;;;4994058;28;20513;-75
2023/07/15 01:57:06;;;;;;;13.23;4.50;;;21.20;1.00;;;;;;4990556;28;20425;-75
2023/07/15 01:59:31;;;;;;;8.70;4.90;;;21.20;1.00;;;;;;4991107;28;20631;-74
2023/07/15 02:01:57;;;;;;;11.83;4.97;;;21.20;1.00;;;;;;4996970;28;20187;-75
2023/07/15 02:04:23;;;;;;;9.87;4.43;;;21.10;1.00;;;;;;4989428;28;20237;-75
2023/07/15 02:06:48;;;;;;;6.63;5.00;;;21.10;1.00;;;;;;4990628;28;20252;-75
2023/07/15 02:09:14;;;;;;;6.40;4.40;;;21.00;1.00;;;;;;4988970;28;20433;-74
2023/07/15 02:11:39;;;;;;;7.53;4.50;;;20.90;1.00;;;;;;4993140;28;20174;-75
2023/07/15 02:14:07;;;;;;;7.93;4.67;;;20.90;1.00;;;;;;4989633;28;20231;-75
2023/07/15 02:16:33;;;;;;;7.03;4.73;;;20.90;1.00;;;;;;5001269;28;20205;-75
2023/07/15 02:18:58;;;;;;;10.87;4.97;;;20.90;1.00;;;;;;4992811;28;20492;-74
2023/07/15 02:21:25;;;;;;;6.70;4.40;;;20.70;1.00;;;;;;4990550;28;20565;-74
2023/07/15 02:23:52;;;;;;;7.47;4.83;;;20.70;1.00;;;;;;4986808;28;20178;-75
2023/07/15 02:26:18;;;;;;;8.63;4.87;;;20.60;1.00;;;;;;4986019;28;20530;-75
2023/07/15 02:28:43;;;;;;;9.07;4.50;;;20.60;1.00;;;;;;4987872;28;20556;-74
2023/07/15 02:31:09;;;;;;;12.90;5.10;;;20.60;1.00;;;;;;4983772;28;20183;-74
2023/07/15 02:33:34;;;;;;;8.33;4.50;;;20.50;1.00;;;;;;4988607;28;20592;-73
2023/07/15 02:36:00;;;;;;;8.67;5.37;;;20.50;1.00;;;;;;4997567;28;20182;-74
2023/07/15 02:38:26;;;;;;;11.90;5.20;;;20.40;1.00;;;;;;4989716;28;20653;-75
2023/07/15 02:40:53;;;;;;;8.43;4.70;;;20.40;1.00;;;;;;4986020;28;20672;-76
2023/07/15 02:43:19;;;;;;;6.83;4.77;;;20.40;1.00;;;;;;4987446;28;20186;-74
2023/07/15 02:45:52;;;;;;;6.07;4.60;;;20.40;1.00;;;;;;4999094;28;20456;-75
2023/07/15 02:48:21;;;;;;;11.93;4.97;;;20.40;1.00;;;;;;4988245;28;20217;-74
2023/07/15 02:50:51;;;;;;;8.93;4.60;;;20.40;1.00;;;;;;4985068;28;20437;-75
2023/07/15 02:53:17;;;;;;;16.00;5.07;;;20.50;1.00;;;;;;4986193;28;20453;-75
2023/07/15 02:55:43;;;;;;;6.07;4.37;;;20.60;1.00;;;;;;4987368;28;20928;-75
2023/07/15 02:58:08;;;;;;;11.10;5.03;;;20.60;1.00;;;;;;4988025;28;20440;-76
2023/07/15 03:00:36;;;;;;;11.67;4.53;;;20.60;1.00;;;;;;4974608;28;20202;-74
2023/07/15 03:03:02;;;;;;;6.00;4.50;;;20.60;1.00;;;;;;4987632;28;20198;-74
2023/07/15 03:05:28;;;;;;;8.20;4.63;;;20.50;1.00;;;;;;4984606;28;20449;-76
2023/07/15 03:07:54;;;;;;;12.17;5.23;;;20.40;1.00;;;;;;4987782;28;20934;-74
2023/07/15 03:10:20;;;;;;;6.10;4.40;;;20.40;1.00;;;;;;4986567;28;20480;-74
2023/07/15 03:12:48;;;;;;;13.70;5.27;;;20.40;1.00;;;;;;4986927;28;20258;-78
2023/07/15 03:15:14;;;;;;;7.77;4.77;;;20.30;1.00;;;;;;4994687;28;20429;-75
2023/07/15 03:17:40;;;;;;;11.13;5.10;;;20.40;1.00;;;;;;4992217;28;20472;-75
2023/07/15 03:20:19;;;;;;;6.10;4.40;;;20.40;1.00;;;;;;4990157;28;20461;-76
2023/07/15 03:22:45;;;;;;;6.10;4.80;;;20.50;1.00;;;;;;4993479;28;20186;-75
2023/07/15 03:25:11;;;;;;;7.27;5.00;;;20.50;1.00;;;;;;4984481;28;20437;-75
2023/07/15 03:27:37;;;;;;;10.67;4.67;;;20.60;1.00;;;;;;4987756;28;20895;-75
2023/07/15 03:30:02;;;;;;;21.10;4.90;;;20.60;1.00;;;;;;4985167;28;20624;-76
2023/07/15 03:32:28;;;;;;;8.53;5.20;;;20.60;1.00;;;;;;4989410;28;20182;-75
2023/07/15 03:34:53;;;;;;;6.00;4.63;;;20.60;1.00;;;;;;4992424;28;20591;-75
2023/07/15 03:37:19;;;;;;;7.80;4.40;;;20.60;1.00;;;;;;4993392;28;20187;-75
2023/07/15 03:39:44;;;;;;;8.57;4.93;;;20.60;1.00;;;;;;4998660;28;20245;-75
2023/07/15 03:42:10;;;;;;;6.63;4.80;;;20.70;1.00;;;;;;4989700;28;20186;-75
2023/07/15 03:44:36;;;;;;;7.93;4.57;;;20.90;1.00;;;;;;4978399;28;20194;-74
2023/07/15 03:47:01;;;;;;;5.70;4.33;;;20.90;1.00;;;;;;4987858;28;20603;-75
2023/07/15 03:49:27;;;;;;;6.77;4.60;;;21.10;1.00;;;;;;4987896;28;20292;-76
2023/07/15 03:51:52;;;;;;;7.50;4.90;;;21.20;1.00;;;;;;4987841;28;20214;-74
2023/07/15 03:54:18;;;;;;;9.03;4.57;;;21.80;1.00;;;;;;4989673;28;20186;-75
2023/07/15 03:56:43;;;;;;;5.80;4.70;;;21.40;1.00;;;;;;4989921;28;20178;-74
2023/07/15 03:59:09;;;;;;;6.43;4.73;;;21.50;1.00;;;;;;4987443;28;20203;-75
2023/07/15 04:01:35;;;;;;;7.47;4.40;;;21.50;1.00;;;;;;4987296;28;20194;-76
2023/07/15 04:04:05;;;;;;;6.70;4.60;;;21.60;1.00;;;;;;5017856;28;20219;-75
2023/07/15 04:06:33;;;;;;;9.80;4.77;;;21.90;1.00;;;;;;4991000;28;20956;-74
2023/07/15 04:08:59;;;;;;;6.97;4.80;;;21.80;1.00;;;;;;4987768;28;20476;-76
2023/07/15 04:11:24;;;;;;;6.90;4.57;;;22.60;1.00;;;;;;4988564;28;20871;-75
2023/07/15 04:13:50;;;;;;;6.97;4.43;;;21.90;1.00;;;;;;4986571;28;20202;-76
2023/07/15 04:16:16;;;;;;;8.70;4.10;;;22.10;1.00;;;;;;4987602;28;20204;-75
2023/07/15 04:18:42;;;;;;;7.43;4.23;;;22.10;1.00;;;;;;4986045;28;20293;-75
2023/07/15 04:21:08;;;;;;;8.80;4.20;;;22.20;1.00;;;;;;4986185;28;20183;-75
2023/07/15 04:23:33;;;;;;;6.73;4.13;;;22.30;1.00;;;;;;4987871;28;20441;-74
2023/07/15 04:25:59;;;;;;;6.10;4.40;;;22.30;1.00;;;;;;4990379;28;20269;-75
2023/07/15 04:28:24;;;;;;;8.30;4.10;;;22.40;1.00;;;;;;4990784;28;20220;-75
2023/07/15 04:30:50;;;;;;;6.23;4.33;;;22.40;1.00;;;;;;4989394;28;20210;-75
2023/07/15 04:33:16;;;;;;;7.00;4.50;;;22.40;1.00;;;;;;4990913;28;20190;-75
2023/07/15 04:35:43;;;;;;;5.80;4.10;;;22.40;1.00;;;;;;4990431;28;20833;-76
2023/07/15 04:38:09;;;;;;;7.03;5.00;;;22.40;1.00;;;;;;4988413;28;20195;-74
2023/07/15 04:40:35;;;;;;;6.70;4.03;;;22.50;1.00;;;;;;4990249;28;20547;-75
2023/07/15 04:43:01;;;;;;;7.90;5.03;;;22.50;1.00;;;;;;5002818;28;20844;-75
2023/07/15 04:45:26;;;;;;;7.30;4.13;;;22.50;1.00;;;;;;4998851;28;20182;-75
2023/07/15 04:47:52;;;;;;;15.03;4.90;;;22.50;1.00;;;;;;5001299;28;20206;-75
2023/07/15 04:50:18;;;;;;;10.33;4.67;;;22.40;1.00;;;;;;5004254;28;20246;-76
2023/07/15 04:52:43;;;;;;;7.90;4.00;;;22.30;1.00;;;;;;4999333;28;20179;-75
2023/07/15 04:55:09;;;;;;;10.60;4.43;;;22.30;1.00;;;;;;4988258;28;20205;-74
2023/07/15 04:57:34;;;;;;;8.63;4.50;;;22.30;1.00;;;;;;4990407;28;20190;-75
2023/07/15 05:00:00;;;;;;;6.30;4.50;;;22.40;1.00;;;;;;4988737;28;20230;-75
2023/07/15 05:02:25;;;;;;;8.50;4.50;;;22.40;1.00;;;;;;4987721;28;20245;-74
2023/07/15 05:04:51;;;;;;;7.03;4.20;;;22.50;1.00;;;;;;4990282;28;20568;-77
2023/07/15 05:07:17;;;;;;;7.20;4.30;;;22.50;1.00;;;;;;4998281;28;20201;-76
2023/07/15 05:09:42;;;;;;;10.07;4.27;;;22.60;1.00;;;;;;4992794;28;20262;-77
2023/07/15 05:12:10;;;;;;;7.60;3.97;;;22.60;1.00;;;;;;5010670;28;20198;-75
2023/07/15 05:14:36;;;;;;;6.27;3.97;;;22.70;1.00;;;;;;5001848;28;20209;-75
2023/07/15 05:17:02;;;;;;;5.30;4.20;;;22.80;1.00;;;;;;4997508;28;20448;-75
2023/07/15 05:19:28;;;;;;;5.27;4.00;;;22.90;1.00;;;;;;5003970;28;20468;-75
2023/07/15 05:21:53;;;;;;;7.40;3.83;;;23.10;1.00;;;;;;5000915;28;20433;-76
2023/07/15 05:24:19;;;;;;;5.77;4.20;;;23.20;1.00;;;;;;5001051;28;20194;-76
2023/07/15 05:26:45;;;;;;;6.73;4.30;;;23.40;1.00;;;;;;5010387;28;20191;-76
2023/07/15 05:29:10;;;;;;;7.33;3.87;;;23.50;1.00;;;;;;4997482;28;20245;-74
2023/07/15 05:31:36;;;;;;;6.87;4.50;;;23.60;1.00;;;;;;4990272;28;20430;-76
2023/07/15 05:34:01;;;;;;;7.00;4.33;;;23.80;1.00;;;;;;4991511;28;20175;-79
2023/07/15 05:36:27;;;;;;;6.70;4.27;;;23.90;1.00;;;;;;5000128;28;20186;-75
2023/07/15 05:38:52;;;;;;;5.73;4.03;;;24.10;1.00;;;;;;4993857;28;20203;-75
2023/07/15 05:41:18;;;;;;;5.43;3.73;;;24.20;1.00;;;;;;4992438;28;20685;-74
2023/07/15 05:43:43;;;;;;;7.67;3.90;;;24.50;1.00;;;;;;4999457;28;20208;-75
2023/07/15 05:46:09;;;;;;;7.20;4.30;;;24.40;1.00;;;;;;4996822;28;20196;-76
2023/07/15 05:48:34;;;;;;;4.83;4.10;;;24.60;1.00;;;;;;4993788;28;20261;-75
2023/07/15 05:51:00;;;;;;;8.43;3.97;;;24.70;1.00;;;;;;4991296;28;20225;-77
2023/07/15 05:53:27;;;;;;;6.17;4.30;;;25.00;1.00;;;;;;4992246;28;20249;-75
2023/07/15 05:55:52;;;;;;;5.03;3.83;;;24.90;1.00;;;;;;4992290;28;20665;-76
2023/07/15 05:58:18;;;;;;;5.37;3.87;;;25.10;1.00;;;;;;4990795;28;20520;-74
2023/07/15 06:00:43;;;;;;;6.07;4.20;;;25.10;1.00;;;;;;4991395;28;20191;-76
2023/07/15 06:03:09;;;;;;;9.40;4.00;;;25.20;1.00;;;;;;4990731;28;20270;-76
2023/07/15 06:05:35;;;;;;;7.33;3.87;;;25.30;1.00;;;;;;4992643;28;20191;-76
2023/07/15 06:08:01;;;;;;;5.23;3.90;;;25.40;1.00;;;;;;4997813;28;20257;-75
2023/07/15 06:10:26;;;;;;;6.67;4.13;;;25.50;1.00;;;;;;4992029;28;20209;-75
2023/07/15 06:12:52;;;;;;;4.80;3.70;;;25.60;1.00;;;;;;4990261;28;20217;-76
2023/07/15 06:15:18;;;;;;;6.47;4.23;;;25.70;1.00;;;;;;4991223;28;20205;-76
2023/07/15 06:17:43;;;;;;;7.50;3.67;;;25.80;1.00;;;;;;4991370;28;20226;-77
2023/07/15 06:20:09;;;;;;;5.20;3.80;;;25.90;1.00;;;;;;4991406;28;20199;-76
2023/07/15 06:22:35;;;;;;;5.60;3.93;;;26.00;1.00;;;;;;4989755;28;20183;-75
2023/07/15 06:25:00;;;;;;;7.80;4.10;;;26.10;1.00;;;;;;4991671;28;20191;-76
2023/07/15 06:27:26;;;;;;;6.10;3.70;;;26.10;1.00;;;;;;4990381;28;20215;-76
2023/07/15 06:29:51;;;;;;;6.13;4.03;;;26.20;1.00;;;;;;4991130;28;20234;-76
2023/07/15 06:32:17;;;;;;;6.00;4.10;;;26.30;1.00;;;;;;4997904;28;20184;-75
2023/07/15 06:34:43;;;;;;;5.17;3.90;;;26.40;1.00;;;;;;4994361;28;20568;-76
2023/07/15 06:37:08;;;;;;;6.40;3.70;;;26.50;1.00;;;;;;4989891;28;20426;-76
2023/07/15 06:39:34;;;;;;;5.13;3.80;;;26.60;1.00;;;;;;4994467;28;20309;-75
2023/07/15 06:41:59;;;;;;;5.20;3.93;;;26.90;1.00;;;;;;5001903;28;20225;-76
2023/07/15 06:44:25;;;;;;;6.50;3.70;;;27.10;1.00;;;;;;4989400;28;20190;-76
2023/07/15 06:46:50;;;;;;;7.23;3.60;;;27.50;1.00;;;;;;5006679;28;20826;-77
2023/07/15 06:49:16;;;;;;;7.30;4.37;;;27.90;1.00;;;;;;4994949;28;20206;-76
2023/07/15 06:51:41;;;;;;;6.23;4.00;;;28.20;1.00;;;;;;4998884;28;20573;-76
2023/07/15 06:54:07;;;;;;;4.70;3.70;;;28.30;1.00;;;;;;4990570;28;20182;-76
2023/07/15 06:56:33;;;;;;;4.73;3.43;;;28.30;1.00;;;;;;4990818;28;20561;-75
2023/07/15 06:58:58;;;;;;;5.77;3.97;;;28.50;1.00;;;;;;5006958;28;20202;-75
2023/07/15 07:01:24;;;;;;;5.90;4.10;;;28.50;1.00;;;;;;4990106;28;20186;-76
2023/07/15 07:03:50;;;;;;;6.40;3.87;;;28.60;1.00;;;;;;5000179;28;20194;-76
2023/07/15 07:06:15;;;;;;;5.30;3.63;;;28.80;1.00;;;;;;4999071;28;20752;-75
2023/07/15 07:08:41;;;;;;;4.70;3.90;;;28.90;1.00;;;;;;4991497;28;20301;-76
2023/07/15 07:11:06;;;;;;;5.77;3.57;;;28.90;1.00;;;;;;5000394;28;20217;-76
2023/07/15 07:13:32;;;;;;;4.40;3.80;;;28.80;1.00;;;;;;4990447;28;20187;-80
2023/07/15 07:15:58;;;;;;;5.33;3.80;;;28.90;1.00;;;;;;4998695;28;20200;-76
2023/07/15 07:18:25;;;;;;;5.63;4.27;;;28.90;1.00;;;;;;4990721;28;20660;-78
2023/07/15 07:21:00;;;;;;;5.45;3.88;;;29.10;1.00;;;;;;4997361;28;20213;-77
2023/07/15 07:23:25;;;;;;;7.50;4.07;;;29.10;1.00;;;;;;4994516;28;20232;-76
2023/07/15 07:25:52;;;;;;;7.03;3.70;;;28.80;1.00;;;;;;4990323;28;20178;-77
2023/07/15 07:28:21;;;;;;;8.77;4.30;;;28.90;1.00;;;;;;4990286;28;20210;-77
2023/07/15 07:30:47;;;;;;;5.90;3.80;;;28.90;1.00;;;;;;4998242;28;20179;-75
2023/07/15 07:33:12;;;;;;;4.90;3.67;;;29.00;1.00;;;;;;4992185;28;20194;-78
2023/07/15 07:35:38;;;;;;;7.07;3.97;;;29.10;1.00;;;;;;4991253;28;20274;-76
2023/07/15 07:38:03;;;;;;;6.15;4.18;;;29.10;1.00;;;;;;4998606;28;20198;-76
2023/07/15 07:40:29;;;;;;;7.80;4.30;;;29.00;1.00;;;;;;4998521;28;20217;-77
2023/07/15 07:42:54;;;;;;;6.43;3.80;;;29.10;1.00;;;;;;4998015;28;20684;-76
2023/07/15 07:45:21;;;;;;;7.07;4.40;;;29.10;1.00;;;;;;4990141;28;20689;-76
2023/07/15 07:47:46;;;;;;;6.83;4.10;;;29.20;1.00;;;;;;4996712;28;20704;-76
2023/07/15 07:50:12;;;;;;;6.13;3.60;;;29.10;1.00;;;;;;4998218;28;20209;-76
2023/07/15 07:52:37;;;;;;;6.35;3.85;;;29.20;1.00;;;;;;4996711;28;20186;-78
2023/07/15 07:55:03;;;;;;;10.07;4.28;;;29.50;1.00;;;;;;4990344;28;20194;-75
2023/07/15 07:57:29;;;;;;;7.28;4.07;;;29.60;1.00;;;;;;4992229;28;20209;-76
2023/07/15 07:59:54;;;;;;;7.32;3.88;;;29.80;1.00;;;;;;4994497;28;20198;-76
2023/07/15 08:02:20;;;;;;;5.55;3.72;;;29.90;1.00;;;;;;5012495;28;20602;-78
2023/07/15 08:04:48;;;;;;;7.35;4.07;;;30.10;1.00;;;;;;5004817;28;20204;-76
2023/07/15 08:07:14;;;;;;;7.53;4.30;;;30.10;1.00;;;;;;4997346;28;20213;-76
2023/07/15 08:09:40;;;;;;;4.70;3.92;;;30.00;1.00;;;;;;5011390;28;20212;-76
2023/07/15 08:12:08;;;;;;;7.45;4.00;;;30.00;1.00;;;;;;4993667;28;20182;-76
2023/07/15 08:14:33;;;;;;;4.88;3.83;;;29.90;1.00;;;;;;4994088;28;20182;-76
2023/07/15 08:16:59;;;;;;;4.95;3.97;;;30.50;1.00;;;;;;4993601;28;20209;-76
2023/07/15 08:19:25;;;;;;;6.03;3.70;;;30.90;1.00;;;;;;4999447;28;20209;-76
2023/07/15 08:21:50;;;;;;;6.03;3.97;;;31.30;1.00;;;;;;5003454;28;20703;-76
2023/07/15 08:24:16;;;;;;;5.18;4.20;;;31.40;1.00;;;;;;5004617;28;20190;-76
2023/07/15 08:26:41;;;;;;;11.15;3.88;;;31.20;1.00;;;;;;4996208;28;20193;-77
2023/07/15 08:29:07;;;;;;;6.13;4.18;;;31.40;1.00;;;;;;4996735;28;20205;-76
2023/07/15 08:31:33;;;;;;;7.05;4.57;;;31.70;1.00;;;;;;4993579;28;20720;-76
2023/07/15 08:33:59;;;;;;;7.70;4.18;;;32.30;1.00;;;;;;4991867;28;20548;-77
2023/07/15 08:36:24;;;;;;;7.70;4.50;;;32.50;1.00;;;;;;4996787;28;20185;-77
2023/07/15 08:38:50;;;;;;;5.68;4.28;;;32.80;1.00;;;;;;4992251;28;20221;-78
2023/07/15 08:41:16;;;;;;;6.60;4.22;;;33.30;1.00;;;;;;4997977;28;20703;-76
2023/07/15 08:43:45;;;;;;;5.28;3.70;;;33.80;1.00;;;;;;5004077;28;20679;-78
2023/07/15 08:46:21;;;;;;;5.72;4.28;;;33.80;1.00;;;;;;5013013;28;20184;-76
2023/07/15 08:48:47;;;;;;;6.40;3.80;;;33.60;1.00;;;;;;5003870;28;20212;-77
2023/07/15 08:51:13;;;;;;;5.70;3.92;;;33.60;1.00;;;;;;5011630;28;20174;-77
2023/07/15 08:53:40;;;;;;;6.30;3.90;;;34.40;1.00;;;;;;4996604;28;20197;-78
2023/07/15 08:56:08;;;;;;;4.95;3.65;;;34.70;1.00;;;;;;5009057;28;20187;-77
2023/07/15 08:58:34;;;;;;;8.27;3.78;;;34.50;1.00;;;;;;4991309;28;20277;-77
2023/07/15 09:01:00;;;;;;;10.80;4.05;;;34.40;1.00;;;;;;4992849;28;20198;-76
2023/07/15 09:03:27;;;;;;;10.77;4.20;;;33.70;1.00;;;;;;5000633;28;20243;-77
2023/07/15 09:05:53;;;;;;;5.45;4.18;;;33.50;1.00;;;;;;4994593;28;20186;-78
2023/07/15 09:08:18;;;;;;;5.40;3.92;;;33.20;1.00;;;;;;4991780;28;20739;-76
2023/07/15 09:10:57;;;;;;;6.15;3.80;;;33.10;1.00;;;;;;5000906;28;20247;-79
2023/07/15 09:13:28;;;;;;;6.75;4.07;;;33.40;1.00;;;;;;4985136;28;20373;-76
2023/07/15 09:15:55;;;;;;;5.75;3.85;;;33.80;1.00;;;;;;4988377;28;20193;-77
2023/07/15 09:18:22;;;;;;;9.88;3.40;;;34.20;1.00;;;;;;4989181;28;20187;-78
2023/07/15 09:20:48;;;;;;;5.93;4.25;;;34.20;1.00;;;;;;4991233;28;20206;-78
2023/07/15 09:23:14;;;;;;;4.87;3.60;;;34.50;1.00;;;;;;4994955;28;20515;-78
2023/07/15 09:26:00;;;;;;;5.22;3.30;;;34.50;1.00;;;;;;4995283;28;20488;-83
2023/07/15 09:28:26;;;;;;;5.25;3.95;;;34.80;1.00;;;;;;4989115;28;20221;-79
2023/07/15 09:30:51;;;;;;;8.85;3.92;;;34.80;1.00;;;;;;4993923;28;20186;-80
2023/07/15 09:33:42;;;;;;;7.53;3.90;;;35.20;1.00;;;;;;4992745;28;20429;-78
2023/07/15 09:36:08;;;;;;;6.97;3.30;;;35.60;1.00;;;;;;4992254;28;20186;-77
2023/07/15 09:38:38;;;;;;;5.90;4.10;;;35.10;1.00;;;;;;4987371;28;20553;-78
2023/07/15 09:41:08;;;;;;;10.43;3.85;;;35.10;1.00;;;;;;4993656;28;20184;-78
2023/07/15 09:43:52;;;;;;;9.38;3.95;;;34.70;1.00;;;;;;5003215;28;20186;-77
2023/07/15 09:46:19;;;;;;;7.85;3.72;;;34.10;1.00;;;;;;5002277;28;20193;-77
2023/07/15 09:48:46;;;;;;;7.93;3.90;;;33.70;1.00;;;;;;4993593;28;20218;-79
2023/07/15 09:51:14;;;;;;;9.25;3.72;;;33.40;1.00;;;;;;4990241;28;20187;-77
2023/07/15 09:54:03;;;;;;;10.35;4.20;;;33.00;1.00;;;;;;4981264;28;20592;-79
2023/07/15 09:56:40;;;;;;;7.97;3.80;;;32.80;1.00;;;;;;4993873;28;20190;-78
2023/07/15 09:59:28;;;;;;;5.65;4.05;;;32.70;1.00;;;;;;4992250;28;20348;-80
2023/07/15 10:02:01;;;;;;;5.68;3.80;;;32.40;1.00;;;;;;4988821;28;20850;-78
2023/07/15 10:04:43;;;;;;;7.10;4.38;;;32.20;1.00;;;;;;4988767;28;20530;-80
2023/07/15 10:07:09;;;;;;;4.90;4.07;;;32.20;1.00;;;;;;4999166;28;20692;-78
2023/07/15 10:09:36;;;;;;;10.32;4.88;;;32.20;1.00;;;;;;4989728;28;20250;-79
2023/07/15 10:12:02;;;;;;;8.85;4.47;;;32.40;1.00;;;;;;4989701;28;20221;-78
2023/07/15 10:14:31;;;;;;;5.50;4.10;;;32.80;1.00;;;;;;4989328;28;20536;-80
2023/07/15 10:17:14;;;;;;;9.55;4.00;;;34.10;1.00;;;;;;4988879;28;20846;-78
2023/07/15 10:19:41;;;;;;;4.53;3.60;;;36.30;1.00;;;;;;4994668;28;20257;-78
2023/07/15 10:22:07;;;;;;;4.22;3.20;;;37.50;1.00;;;;;;4996737;28;20664;-79
2023/07/15 10:24:33;;;;;;;11.38;3.80;;;37.60;1.00;;;;;;4987477;28;20195;-79
2023/07/15 10:27:05;;;;;;;10.35;3.55;;;37.90;1.00;;;;;;4990518;28;20187;-78
2023/07/15 10:29:31;;;;;;;5.32;3.42;;;37.10;1.00;;;;;;4992583;28;20223;-81
2023/07/15 10:32:14;;;;;;;6.55;3.45;;;36.60;1.00;;;;;;4994391;28;20183;-80
2023/07/15 10:34:42;;;;;;;8.77;3.72;;;36.20;1.00;;;;;;4997791;28;20214;-81
2023/07/15 10:37:10;;;;;;;5.22;3.65;;;35.60;1.00;;;;;;4995771;28;20600;-78
2023/07/15 10:39:36;;;;;;;7.70;4.25;;;35.20;1.00;;;;;;5000238;28;20206;-79
2023/07/15 10:42:15;;;;;;;5.03;4.10;;;35.00;1.00;;;;;;4989992;28;20195;-79
2023/07/15 10:44:44;;;;;;;9.02;4.45;;;34.80;1.00;;;;;;4994549;28;20739;-79
2023/07/15 10:47:10;;;;;;;5.45;3.92;;;35.00;1.00;;;;;;4998264;28;20656;-80
2023/07/15 10:49:36;;;;;;;19.00;4.60;;;35.40;1.00;;;;;;4990764;28;20301;-80
2023/07/15 10:52:03;;;;;;;6.57;4.03;;;35.60;1.00;;;;;;4991259;28;20299;-80
2023/07/15 10:54:30;;;;;;;5.85;3.83;;;35.50;1.00;;;;;;4991440;28;20771;-77
2023/07/15 10:56:56;;;;;;;4.93;3.60;;;35.60;1.00;;;;;;4991361;28;20186;-78
2023/07/15 10:59:36;;;;;;;6.25;4.00;;;35.60;1.00;;;;;;4988505;28;20234;-78
2023/07/15 11:02:02;;;;;;;6.57;3.75;;;35.10;1.00;;;;;;4990061;28;20206;-78
2023/07/15 11:04:28;;;;;;;5.90;4.10;;;34.30;1.00;;;;;;4995127;28;20702;-78
2023/07/15 11:07:00;;;;;;;6.32;3.80;;;33.80;1.00;;;;;;5002377;28;20235;-77
2023/07/15 11:09:25;;;;;;;6.60;4.15;;;33.30;1.00;;;;;;5058233;22;20214;-79
2023/07/15 11:11:51;;;;;;;5.57;3.97;;;33.30;1.00;;;;;;5028748;28;20203;-79
2023/07/15 11:14:26;;;;;;;6.68;4.20;;;33.40;1.00;;;;;;5029832;28;20528;-80
2023/07/15 11:16:57;;;;;;;7.03;3.90;;;33.40;1.00;;;;;;5030334;28;20185;-79
2023/07/15 11:19:26;;;;;;;5.32;3.88;;;33.10;1.00;;;;;;5022332;28;20189;-79
2023/07/15 11:21:52;;;;;;;5.68;4.03;;;33.00;1.00;;;;;;5010642;28;20190;-79
2023/07/15 11:24:20;;;;;;;16.13;4.68;;;32.90;1.00;;;;;;5017496;28;20580;-80
2023/07/15 11:26:45;;;;;;;9.45;4.72;;;32.80;1.00;;;;;;5010797;28;20213;-79
2023/07/15 11:29:22;;;;;;;15.15;4.75;;;33.00;1.00;;;;;;5027232;28;20729;-79
2023/07/15 11:31:50;;;;;;;12.25;3.80;;;33.00;1.00;;;;;;5014297;28;20280;-79
2023/07/15 11:34:17;;;;;;;5.30;3.83;;;33.00;1.00;;;;;;5012836;28;20205;-79
2023/07/15 11:36:44;;;;;;;6.28;4.55;;;32.80;1.00;;;;;;5016161;28;20197;-79
2023/07/15 11:39:10;;;;;;;8.85;6.28;;;32.60;1.00;;;;;;5019115;28;20227;-79
2023/07/15 11:41:37;;;;;;;11.93;6.35;;;32.60;1.00;;;;;;5018588;28;20186;-79
2023/07/15 11:44:07;;;;;;;7.75;4.43;;;32.80;1.00;;;;;;5014811;28;20364;-79
2023/07/15 11:46:34;;;;;;;6.63;4.25;;;32.30;1.00;;;;;;5015642;28;20191;-79
2023/07/15 11:49:00;;;;;;;9.50;3.90;;;32.20;1.00;;;;;;5021415;28;20194;-77
2023/07/15 11:51:25;;;;;;;16.52;4.28;;;32.40;1.00;;;;;;5016620;28;20303;-79
2023/07/15 11:53:54;;;;;;;6.85;4.07;;;32.80;1.00;;;;;;5021962;28;20213;-79
2023/07/15 11:56:39;;;;;;;8.88;4.40;;;33.50;1.00;;;;;;5018908;28;20815;-79
2023/07/15 11:59:07;;;;;;;12.35;4.43;;;34.40;1.00;;;;;;5017426;28;20189;-79
2023/07/15 12:01:33;;;;;;;5.93;4.18;;;34.90;1.00;;;;;;5022957;28;20286;-80
2023/07/15 12:03:59;;;;;;;6.15;4.35;;;35.90;1.00;;;;;;5014221;28;20217;-79
2023/07/15 12:06:28;;;;;;;5.70;4.45;;;37.10;1.00;;;;;;5018358;28;20186;-79
2023/07/15 12:09:26;;;;;;;6.38;4.35;;;38.10;1.00;;;;;;5028517;28;20219;-79
2023/07/15 12:11:52;;;;;;;7.03;3.83;;;39.00;1.00;;;;;;4987449;28;20707;-79
2023/07/15 12:14:18;;;;;;;7.25;3.72;;;40.20;1.00;;;;;;5020126;28;20185;-79
2023/07/15 12:16:44;;;;;;;8.57;3.75;;;40.40;1.00;;;;;;5016151;28;20174;-80
2023/07/15 12:19:17;;;;;;;6.00;4.15;;;40.90;1.00;;;;;;5019614;28;20182;-79
2023/07/15 12:21:42;;;;;;;7.57;4.10;;;40.40;1.00;;;;;;5010553;28;21454;-79
2023/07/15 12:24:08;;;;;;;7.78;4.00;;;39.20;1.00;;;;;;5015774;28;20181;-80
2023/07/15 12:26:34;;;;;;;9.85;3.92;;;38.10;1.00;;;;;;5020683;28;20575;-79
2023/07/15 12:28:59;;;;;;;6.88;4.18;;;37.30;1.00;;;;;;5027740;28;20699;-79
2023/07/15 12:31:25;;;;;;;6.60;4.20;;;36.50;1.00;;;;;;5010457;28;20193;-79
2023/07/15 12:33:51;;;;;;;8.63;3.70;;;36.00;1.00;;;;;;5018408;28;20182;-79
2023/07/15 12:36:17;;;;;;;14.30;5.00;;;35.50;1.00;;;;;;5014494;28;20185;-79
2023/07/15 12:38:44;;;;;;;9.40;3.90;;;35.30;1.00;;;;;;5017505;28;20202;-79
2023/07/15 12:41:10;;;;;;;8.88;4.60;;;35.30;1.00;;;;;;5008927;28;20284;-79
2023/07/15 12:43:37;;;;;;;10.07;4.20;;;35.10;1.00;;;;;;5017457;28;20177;-77
2023/07/15 12:46:03;;;;;;;8.77;4.82;;;34.80;1.00;;;;;;5019656;28;20594;-79
2023/07/15 12:48:28;;;;;;;7.45;3.88;;;34.60;1.00;;;;;;5013126;28;20209;-79
2023/07/15 12:50:54;;;;;;;11.20;4.65;;;34.50;1.00;;;;;;5016090;28;20559;-79
2023/07/15 12:53:21;;;;;;;8.70;4.30;;;34.60;1.00;;;;;;5021788;28;20555;-80
2023/07/15 12:55:47;;;;;;;10.95;4.50;;;34.30;1.00;;;;;;5023108;28;20220;-79